sensor_id;sensor_type;location;lat;lon;timestamp;P1;durP1;ratioP1;P2;durP2;ratioP2
36855;SDS011;22788;51.434;6.786;2022-12-18T00:02:20;14.23;;;7.53;;
36855;SDS011;22788;51.434;6.786;2022-12-18T00:04:46;11.77;;;7.03;;
36855;SDS011;22788;51.434;6.786;2022-12-18T00:07:13;11.07;;;6.87;;
36855;SDS011;22788;51.434;6.786;2022-12-18T00:09:39;12.50;;;7.20;;
36855;SDS011;22788;51.434;6.786;2022-12-18T00:12:05;10.70;;;6.67;;
36855;SDS011;22788;51.434;6.786;2022-12-18T00:14:31;10.97;;;6.40;;
36855;SDS011;22788;51.434;6.786;2022-12-18T00:16:59;11.97;;;6.77;;
36855;SDS011;22788;51.434;6.786;2022-12-18T00:19:25;11.03;;;6.83;;
36855;SDS011;22788;51.434;6.786;2022-12-18T00:21:52;11.80;;;6.53;;
36855;SDS011;22788;51.434;6.786;2022-12-18T00:24:18;11.37;;;6.87;;
36855;SDS011;22788;51.434;6.786;2022-12-18T00:26:44;12.13;;;6.77;;
36855;SDS011;22788;51.434;6.786;2022-12-18T00:29:11;10.50;;;6.90;;
36855;SDS011;22788;51.434;6.786;2022-12-18T00:31:39;11.07;;;6.73;;
36855;SDS011;22788;51.434;6.786;2022-12-18T00:34:06;10.23;;;7.30;;
36855;SDS011;22788;51.434;6.786;2022-12-18T00:36:34;11.77;;;6.97;;
36855;SDS011;22788;51.434;6.786;2022-12-18T00:39:02;10.63;;;6.83;;
36855;SDS011;22788;51.434;6.786;2022-12-18T00:41:29;9.97;;;6.57;;
36855;SDS011;22788;51.434;6.786;2022-12-18T00:43:56;12.77;;;6.83;;
36855;SDS011;22788;51.434;6.786;2022-12-18T00:46:22;14.00;;;7.60;;
36855;SDS011;22788;51.434;6.786;2022-12-18T00:48:48;12.07;;;6.80;;
36855;SDS011;22788;51.434;6.786;2022-12-18T00:51:15;15.33;;;7.20;;
36855;SDS011;22788;51.434;6.786;2022-12-18T00:53:41;10.50;;;6.90;;
36855;SDS011;22788;51.434;6.786;2022-12-18T00:56:07;10.93;;;6.73;;
36855;SDS011;22788;51.434;6.786;2022-12-18T00:58:33;11.83;;;7.00;;
36855;SDS011;22788;51.434;6.786;2022-12-18T01:00:59;8.90;;;6.10;;
36855;SDS011;22788;51.434;6.786;2022-12-18T01:03:25;8.80;;;5.93;;
36855;SDS011;22788;51.434;6.786;2022-12-18T01:05:51;9.13;;;5.83;;
36855;SDS011;22788;51.434;6.786;2022-12-18T01:08:19;9.73;;;6.33;;
36855;SDS011;22788;51.434;6.786;2022-12-18T01:10:45;11.30;;;7.03;;
36855;SDS011;22788;51.434;6.786;2022-12-18T01:13:11;11.53;;;6.60;;
36855;SDS011;22788;51.434;6.786;2022-12-18T01:15:37;10.73;;;6.23;;
36855;SDS011;22788;51.434;6.786;2022-12-18T01:18:04;8.70;;;5.53;;
36855;SDS011;22788;51.434;6.786;2022-12-18T01:20:31;12.20;;;6.47;;
36855;SDS011;22788;51.434;6.786;2022-12-18T01:22:57;8.83;;;5.77;;
36855;SDS011;22788;51.434;6.786;2022-12-18T01:25:24;8.83;;;6.30;;
36855;SDS011;22788;51.434;6.786;2022-12-18T01:27:50;8.27;;;5.37;;
36855;SDS011;22788;51.434;6.786;2022-12-18T01:30:16;11.73;;;5.93;;
36855;SDS011;22788;51.434;6.786;2022-12-18T01:32:42;7.73;;;5.37;;
36855;SDS011;22788;51.434;6.786;2022-12-18T01:35:08;11.07;;;6.40;;
36855;SDS011;22788;51.434;6.786;2022-12-18T01:37:34;8.37;;;5.67;;
36855;SDS011;22788;51.434;6.786;2022-12-18T01:40:00;11.87;;;6.40;;
36855;SDS011;22788;51.434;6.786;2022-12-18T01:42:28;10.63;;;5.43;;
36855;SDS011;22788;51.434;6.786;2022-12-18T01:44:55;10.33;;;6.03;;
36855;SDS011;22788;51.434;6.786;2022-12-18T01:47:24;9.40;;;6.10;;
36855;SDS011;22788;51.434;6.786;2022-12-18T01:49:54;7.43;;;5.27;;
36855;SDS011;22788;51.434;6.786;2022-12-18T01:52:21;7.80;;;5.37;;
36855;SDS011;22788;51.434;6.786;2022-12-18T01:54:49;9.27;;;6.03;;
36855;SDS011;22788;51.434;6.786;2022-12-18T01:57:17;8.77;;;5.30;;
36855;SDS011;22788;51.434;6.786;2022-12-18T01:59:46;7.57;;;5.50;;
36855;SDS011;22788;51.434;6.786;2022-12-18T02:02:16;7.33;;;5.47;;
36855;SDS011;22788;51.434;6.786;2022-12-18T02:04:43;10.83;;;5.73;;
36855;SDS011;22788;51.434;6.786;2022-12-18T02:07:10;10.23;;;5.10;;
36855;SDS011;22788;51.434;6.786;2022-12-18T02:09:43;7.13;;;4.70;;
36855;SDS011;22788;51.434;6.786;2022-12-18T02:12:16;8.07;;;5.00;;
36855;SDS011;22788;51.434;6.786;2022-12-18T02:14:48;8.30;;;5.20;;
36855;SDS011;22788;51.434;6.786;2022-12-18T02:17:21;9.60;;;5.07;;
36855;SDS011;22788;51.434;6.786;2022-12-18T02:19:55;9.70;;;5.53;;
36855;SDS011;22788;51.434;6.786;2022-12-18T02:22:36;9.77;;;4.90;;
36855;SDS011;22788;51.434;6.786;2022-12-18T02:25:13;9.03;;;5.50;;
36855;SDS011;22788;51.434;6.786;2022-12-18T02:27:51;7.03;;;5.03;;
36855;SDS011;22788;51.434;6.786;2022-12-18T02:30:19;7.20;;;4.10;;
36855;SDS011;22788;51.434;6.786;2022-12-18T02:32:47;6.53;;;4.77;;
36855;SDS011;22788;51.434;6.786;2022-12-18T02:35:19;9.03;;;5.00;;
36855;SDS011;22788;51.434;6.786;2022-12-18T02:37:48;7.43;;;5.27;;
36855;SDS011;22788;51.434;6.786;2022-12-18T02:40:15;6.20;;;4.90;;
36855;SDS011;22788;51.434;6.786;2022-12-18T02:42:42;7.93;;;5.37;;
36855;SDS011;22788;51.434;6.786;2022-12-18T02:45:10;7.77;;;5.17;;
36855;SDS011;22788;51.434;6.786;2022-12-18T02:47:37;7.77;;;4.73;;
36855;SDS011;22788;51.434;6.786;2022-12-18T02:50:07;7.97;;;5.20;;
36855;SDS011;22788;51.434;6.786;2022-12-18T02:52:41;7.53;;;4.60;;
36855;SDS011;22788;51.434;6.786;2022-12-18T02:55:17;7.37;;;4.50;;
36855;SDS011;22788;51.434;6.786;2022-12-18T02:57:53;7.50;;;4.83;;
36855;SDS011;22788;51.434;6.786;2022-12-18T03:00:24;7.67;;;4.80;;
36855;SDS011;22788;51.434;6.786;2022-12-18T03:02:57;11.60;;;5.70;;
36855;SDS011;22788;51.434;6.786;2022-12-18T03:05:31;6.60;;;4.43;;
36855;SDS011;22788;51.434;6.786;2022-12-18T03:08:02;7.60;;;4.80;;
36855;SDS011;22788;51.434;6.786;2022-12-18T03:10:32;8.83;;;5.13;;
36855;SDS011;22788;51.434;6.786;2022-12-18T03:13:04;6.10;;;4.53;;
36855;SDS011;22788;51.434;6.786;2022-12-18T03:15:36;9.97;;;4.87;;
36855;SDS011;22788;51.434;6.786;2022-12-18T03:18:06;9.00;;;4.77;;
36855;SDS011;22788;51.434;6.786;2022-12-18T03:20:39;7.70;;;5.27;;
36855;SDS011;22788;51.434;6.786;2022-12-18T03:23:09;8.47;;;4.80;;
36855;SDS011;22788;51.434;6.786;2022-12-18T03:25:39;7.20;;;4.67;;
36855;SDS011;22788;51.434;6.786;2022-12-18T03:28:07;8.47;;;5.00;;
36855;SDS011;22788;51.434;6.786;2022-12-18T03:30:39;7.80;;;4.67;;
36855;SDS011;22788;51.434;6.786;2022-12-18T03:33:07;6.77;;;5.07;;
36855;SDS011;22788;51.434;6.786;2022-12-18T03:35:37;7.23;;;5.10;;
36855;SDS011;22788;51.434;6.786;2022-12-18T03:38:05;8.63;;;4.97;;
36855;SDS011;22788;51.434;6.786;2022-12-18T03:40:35;8.60;;;5.33;;
36855;SDS011;22788;51.434;6.786;2022-12-18T03:43:10;7.13;;;4.73;;
36855;SDS011;22788;51.434;6.786;2022-12-18T03:45:45;8.87;;;5.63;;
36855;SDS011;22788;51.434;6.786;2022-12-18T03:48:18;9.60;;;4.90;;
36855;SDS011;22788;51.434;6.786;2022-12-18T03:50:51;9.03;;;5.27;;
36855;SDS011;22788;51.434;6.786;2022-12-18T03:53:23;7.37;;;4.90;;
36855;SDS011;22788;51.434;6.786;2022-12-18T03:55:57;7.90;;;5.40;;
36855;SDS011;22788;51.434;6.786;2022-12-18T03:58:26;7.47;;;4.90;;
36855;SDS011;22788;51.434;6.786;2022-12-18T04:00:55;7.83;;;5.00;;
36855;SDS011;22788;51.434;6.786;2022-12-18T04:03:24;8.10;;;4.70;;
36855;SDS011;22788;51.434;6.786;2022-12-18T04:05:54;7.57;;;4.47;;
36855;SDS011;22788;51.434;6.786;2022-12-18T04:08:22;5.97;;;4.50;;
36855;SDS011;22788;51.434;6.786;2022-12-18T04:10:50;8.17;;;5.23;;
36855;SDS011;22788;51.434;6.786;2022-12-18T04:13:21;7.23;;;5.00;;
36855;SDS011;22788;51.434;6.786;2022-12-18T04:15:47;7.23;;;3.80;;
36855;SDS011;22788;51.434;6.786;2022-12-18T04:18:15;6.43;;;4.30;;
36855;SDS011;22788;51.434;6.786;2022-12-18T04:20:41;7.67;;;4.90;;
36855;SDS011;22788;51.434;6.786;2022-12-18T04:23:07;6.67;;;4.00;;
36855;SDS011;22788;51.434;6.786;2022-12-18T04:25:33;6.93;;;4.43;;
36855;SDS011;22788;51.434;6.786;2022-12-18T04:27:59;5.97;;;4.43;;
36855;SDS011;22788;51.434;6.786;2022-12-18T04:30:25;8.13;;;5.00;;
36855;SDS011;22788;51.434;6.786;2022-12-18T04:32:51;9.00;;;4.83;;
36855;SDS011;22788;51.434;6.786;2022-12-18T04:35:19;10.27;;;5.10;;
36855;SDS011;22788;51.434;6.786;2022-12-18T04:37:45;6.47;;;4.27;;
36855;SDS011;22788;51.434;6.786;2022-12-18T04:40:11;6.97;;;4.63;;
36855;SDS011;22788;51.434;6.786;2022-12-18T04:42:38;7.40;;;4.63;;
36855;SDS011;22788;51.434;6.786;2022-12-18T04:45:05;6.93;;;5.07;;
36855;SDS011;22788;51.434;6.786;2022-12-18T04:47:32;7.33;;;4.30;;
36855;SDS011;22788;51.434;6.786;2022-12-18T04:49:58;8.10;;;4.97;;
36855;SDS011;22788;51.434;6.786;2022-12-18T04:52:25;7.40;;;4.77;;
36855;SDS011;22788;51.434;6.786;2022-12-18T04:54:52;7.37;;;4.20;;
36855;SDS011;22788;51.434;6.786;2022-12-18T04:57:18;7.20;;;4.63;;
36855;SDS011;22788;51.434;6.786;2022-12-18T04:59:44;7.40;;;4.83;;
36855;SDS011;22788;51.434;6.786;2022-12-18T05:02:10;7.20;;;4.70;;
36855;SDS011;22788;51.434;6.786;2022-12-18T05:04:36;6.93;;;4.10;;
36855;SDS011;22788;51.434;6.786;2022-12-18T05:07:02;7.43;;;4.37;;
36855;SDS011;22788;51.434;6.786;2022-12-18T05:09:30;5.40;;;4.10;;
36855;SDS011;22788;51.434;6.786;2022-12-18T05:11:56;6.10;;;4.03;;
36855;SDS011;22788;51.434;6.786;2022-12-18T05:14:22;6.87;;;4.33;;
36855;SDS011;22788;51.434;6.786;2022-12-18T05:16:48;7.37;;;4.43;;
36855;SDS011;22788;51.434;6.786;2022-12-18T05:19:14;6.57;;;4.27;;
36855;SDS011;22788;51.434;6.786;2022-12-18T05:21:40;5.73;;;4.50;;
36855;SDS011;22788;51.434;6.786;2022-12-18T05:24:06;8.43;;;4.77;;
36855;SDS011;22788;51.434;6.786;2022-12-18T05:26:33;6.63;;;4.27;;
36855;SDS011;22788;51.434;6.786;2022-12-18T05:28:59;7.33;;;4.20;;
36855;SDS011;22788;51.434;6.786;2022-12-18T05:31:25;6.60;;;4.17;;
36855;SDS011;22788;51.434;6.786;2022-12-18T05:33:51;7.07;;;4.87;;
36855;SDS011;22788;51.434;6.786;2022-12-18T05:36:17;7.17;;;4.20;;
36855;SDS011;22788;51.434;6.786;2022-12-18T05:38:43;6.80;;;3.60;;
36855;SDS011;22788;51.434;6.786;2022-12-18T05:41:09;6.53;;;4.00;;
36855;SDS011;22788;51.434;6.786;2022-12-18T05:43:37;6.00;;;3.90;;
36855;SDS011;22788;51.434;6.786;2022-12-18T05:46:04;6.40;;;3.97;;
36855;SDS011;22788;51.434;6.786;2022-12-18T05:48:31;4.70;;;3.73;;
36855;SDS011;22788;51.434;6.786;2022-12-18T05:51:02;5.67;;;4.00;;
36855;SDS011;22788;51.434;6.786;2022-12-18T05:53:29;8.37;;;4.30;;
36855;SDS011;22788;51.434;6.786;2022-12-18T05:55:59;6.80;;;4.60;;
36855;SDS011;22788;51.434;6.786;2022-12-18T05:58:25;5.77;;;4.10;;
36855;SDS011;22788;51.434;6.786;2022-12-18T06:00:53;6.37;;;3.97;;
36855;SDS011;22788;51.434;6.786;2022-12-18T06:03:19;4.70;;;3.57;;
36855;SDS011;22788;51.434;6.786;2022-12-18T06:05:45;5.60;;;4.00;;
36855;SDS011;22788;51.434;6.786;2022-12-18T06:08:11;4.80;;;3.77;;
36855;SDS011;22788;51.434;6.786;2022-12-18T06:10:38;5.70;;;3.50;;
36855;SDS011;22788;51.434;6.786;2022-12-18T06:13:04;4.47;;;3.50;;
36855;SDS011;22788;51.434;6.786;2022-12-18T06:15:30;7.33;;;4.40;;
36855;SDS011;22788;51.434;6.786;2022-12-18T06:17:58;6.50;;;4.43;;
36855;SDS011;22788;51.434;6.786;2022-12-18T06:20:25;7.70;;;4.50;;
36855;SDS011;22788;51.434;6.786;2022-12-18T06:22:51;6.27;;;3.87;;
36855;SDS011;22788;51.434;6.786;2022-12-18T06:25:17;8.67;;;4.70;;
36855;SDS011;22788;51.434;6.786;2022-12-18T06:27:43;6.53;;;3.97;;
36855;SDS011;22788;51.434;6.786;2022-12-18T06:30:10;4.97;;;3.70;;
36855;SDS011;22788;51.434;6.786;2022-12-18T06:32:36;5.87;;;3.83;;
36855;SDS011;22788;51.434;6.786;2022-12-18T06:35:05;5.33;;;3.70;;
36855;SDS011;22788;51.434;6.786;2022-12-18T06:37:31;6.33;;;4.20;;
36855;SDS011;22788;51.434;6.786;2022-12-18T06:39:57;4.73;;;3.60;;
36855;SDS011;22788;51.434;6.786;2022-12-18T06:42:23;5.07;;;3.63;;
36855;SDS011;22788;51.434;6.786;2022-12-18T06:44:50;6.10;;;4.30;;
36855;SDS011;22788;51.434;6.786;2022-12-18T06:47:16;7.10;;;4.60;;
36855;SDS011;22788;51.434;6.786;2022-12-18T06:49:42;8.50;;;4.47;;
36855;SDS011;22788;51.434;6.786;2022-12-18T06:52:10;7.50;;;4.10;;
36855;SDS011;22788;51.434;6.786;2022-12-18T06:54:36;7.63;;;4.20;;
36855;SDS011;22788;51.434;6.786;2022-12-18T06:57:02;7.00;;;4.03;;
36855;SDS011;22788;51.434;6.786;2022-12-18T06:59:28;7.93;;;4.33;;
36855;SDS011;22788;51.434;6.786;2022-12-18T07:01:54;5.60;;;3.93;;
36855;SDS011;22788;51.434;6.786;2022-12-18T07:04:20;5.73;;;3.90;;
36855;SDS011;22788;51.434;6.786;2022-12-18T07:06:46;7.37;;;4.30;;
36855;SDS011;22788;51.434;6.786;2022-12-18T07:09:14;5.67;;;4.03;;
36855;SDS011;22788;51.434;6.786;2022-12-18T07:11:40;7.00;;;4.13;;
36855;SDS011;22788;51.434;6.786;2022-12-18T07:14:06;7.83;;;4.90;;
36855;SDS011;22788;51.434;6.786;2022-12-18T07:16:32;7.40;;;4.77;;
36855;SDS011;22788;51.434;6.786;2022-12-18T07:18:58;5.27;;;3.90;;
36855;SDS011;22788;51.434;6.786;2022-12-18T07:21:24;6.43;;;3.90;;
36855;SDS011;22788;51.434;6.786;2022-12-18T07:23:50;7.33;;;4.27;;
36855;SDS011;22788;51.434;6.786;2022-12-18T07:26:18;7.50;;;4.03;;
36855;SDS011;22788;51.434;6.786;2022-12-18T07:28:46;4.93;;;4.00;;
36855;SDS011;22788;51.434;6.786;2022-12-18T07:31:14;5.67;;;3.70;;
36855;SDS011;22788;51.434;6.786;2022-12-18T07:33:42;5.73;;;3.90;;
36855;SDS011;22788;51.434;6.786;2022-12-18T07:36:09;5.47;;;3.70;;
36855;SDS011;22788;51.434;6.786;2022-12-18T07:38:35;8.10;;;4.30;;
36855;SDS011;22788;51.434;6.786;2022-12-18T07:41:02;6.30;;;4.10;;
36855;SDS011;22788;51.434;6.786;2022-12-18T07:43:30;7.73;;;4.90;;
36855;SDS011;22788;51.434;6.786;2022-12-18T07:45:56;7.27;;;4.47;;
36855;SDS011;22788;51.434;6.786;2022-12-18T07:48:22;7.67;;;4.57;;
36855;SDS011;22788;51.434;6.786;2022-12-18T07:50:50;6.70;;;3.80;;
36855;SDS011;22788;51.434;6.786;2022-12-18T07:53:16;7.70;;;4.57;;
36855;SDS011;22788;51.434;6.786;2022-12-18T07:55:42;6.97;;;4.80;;
36855;SDS011;22788;51.434;6.786;2022-12-18T07:58:08;6.23;;;4.43;;
36855;SDS011;22788;51.434;6.786;2022-12-18T08:00:36;6.93;;;4.43;;
36855;SDS011;22788;51.434;6.786;2022-12-18T08:03:02;7.00;;;4.27;;
36855;SDS011;22788;51.434;6.786;2022-12-18T08:05:28;8.10;;;4.60;;
36855;SDS011;22788;51.434;6.786;2022-12-18T08:07:54;6.37;;;4.43;;
36855;SDS011;22788;51.434;6.786;2022-12-18T08:10:20;6.50;;;4.27;;
36855;SDS011;22788;51.434;6.786;2022-12-18T08:12:48;8.13;;;4.57;;
36855;SDS011;22788;51.434;6.786;2022-12-18T08:15:15;7.43;;;4.17;;
36855;SDS011;22788;51.434;6.786;2022-12-18T08:17:42;7.00;;;4.87;;
36855;SDS011;22788;51.434;6.786;2022-12-18T08:20:09;6.43;;;4.60;;
36855;SDS011;22788;51.434;6.786;2022-12-18T08:22:35;8.00;;;4.97;;
36855;SDS011;22788;51.434;6.786;2022-12-18T08:25:01;8.07;;;4.70;;
36855;SDS011;22788;51.434;6.786;2022-12-18T08:27:28;5.47;;;4.20;;
36855;SDS011;22788;51.434;6.786;2022-12-18T08:29:54;6.93;;;4.70;;
36855;SDS011;22788;51.434;6.786;2022-12-18T08:32:20;8.53;;;5.50;;
36855;SDS011;22788;51.434;6.786;2022-12-18T08:34:47;6.63;;;4.70;;
36855;SDS011;22788;51.434;6.786;2022-12-18T08:37:13;8.63;;;5.70;;
36855;SDS011;22788;51.434;6.786;2022-12-18T08:39:39;8.40;;;5.10;;
36855;SDS011;22788;51.434;6.786;2022-12-18T08:42:05;10.20;;;5.40;;
36855;SDS011;22788;51.434;6.786;2022-12-18T08:44:31;8.73;;;5.33;;
36855;SDS011;22788;51.434;6.786;2022-12-18T08:46:57;8.97;;;5.97;;
36855;SDS011;22788;51.434;6.786;2022-12-18T08:49:23;8.80;;;5.43;;
36855;SDS011;22788;51.434;6.786;2022-12-18T08:51:55;9.57;;;5.17;;
36855;SDS011;22788;51.434;6.786;2022-12-18T08:54:21;8.27;;;5.40;;
36855;SDS011;22788;51.434;6.786;2022-12-18T08:56:47;8.60;;;5.70;;
36855;SDS011;22788;51.434;6.786;2022-12-18T08:59:13;7.43;;;5.53;;
36855;SDS011;22788;51.434;6.786;2022-12-18T09:01:39;9.07;;;6.73;;
36855;SDS011;22788;51.434;6.786;2022-12-18T09:04:05;10.20;;;6.10;;
36855;SDS011;22788;51.434;6.786;2022-12-18T09:06:31;10.70;;;6.73;;
36855;SDS011;22788;51.434;6.786;2022-12-18T09:08:59;12.33;;;6.70;;
36855;SDS011;22788;51.434;6.786;2022-12-18T09:11:25;11.37;;;6.07;;
36855;SDS011;22788;51.434;6.786;2022-12-18T09:13:52;10.57;;;6.47;;
36855;SDS011;22788;51.434;6.786;2022-12-18T09:16:19;10.50;;;6.67;;
36855;SDS011;22788;51.434;6.786;2022-12-18T09:18:46;8.80;;;6.20;;
36855;SDS011;22788;51.434;6.786;2022-12-18T09:21:12;7.90;;;5.93;;
36855;SDS011;22788;51.434;6.786;2022-12-18T09:23:40;10.67;;;7.27;;
36855;SDS011;22788;51.434;6.786;2022-12-18T09:26:08;9.63;;;6.33;;
36855;SDS011;22788;51.434;6.786;2022-12-18T09:28:34;9.47;;;6.37;;
36855;SDS011;22788;51.434;6.786;2022-12-18T09:31:03;9.63;;;6.77;;
36855;SDS011;22788;51.434;6.786;2022-12-18T09:33:30;10.73;;;7.00;;
36855;SDS011;22788;51.434;6.786;2022-12-18T09:35:56;10.27;;;5.93;;
36855;SDS011;22788;51.434;6.786;2022-12-18T09:38:22;9.93;;;7.23;;
36855;SDS011;22788;51.434;6.786;2022-12-18T09:40:49;11.10;;;6.43;;
36855;SDS011;22788;51.434;6.786;2022-12-18T09:43:18;9.80;;;6.40;;
36855;SDS011;22788;51.434;6.786;2022-12-18T09:45:49;12.20;;;6.43;;
36855;SDS011;22788;51.434;6.786;2022-12-18T09:48:19;12.37;;;6.37;;
36855;SDS011;22788;51.434;6.786;2022-12-18T09:50:48;8.07;;;6.03;;
36855;SDS011;22788;51.434;6.786;2022-12-18T09:53:17;10.23;;;6.30;;
36855;SDS011;22788;51.434;6.786;2022-12-18T09:55:47;10.40;;;6.97;;
36855;SDS011;22788;51.434;6.786;2022-12-18T09:58:16;9.40;;;6.17;;
36855;SDS011;22788;51.434;6.786;2022-12-18T10:00:59;9.47;;;5.80;;
36855;SDS011;22788;51.434;6.786;2022-12-18T10:03:25;10.80;;;7.30;;
36855;SDS011;22788;51.434;6.786;2022-12-18T10:05:54;11.37;;;6.27;;
36855;SDS011;22788;51.434;6.786;2022-12-18T10:08:29;8.73;;;6.17;;
36855;SDS011;22788;51.434;6.786;2022-12-18T10:11:14;8.67;;;5.93;;
36855;SDS011;22788;51.434;6.786;2022-12-18T10:13:49;9.37;;;6.00;;
36855;SDS011;22788;51.434;6.786;2022-12-18T10:16:22;10.33;;;5.47;;
36855;SDS011;22788;51.434;6.786;2022-12-18T10:19:09;10.67;;;6.07;;
36855;SDS011;22788;51.434;6.786;2022-12-18T10:21:49;9.03;;;5.17;;
36855;SDS011;22788;51.434;6.786;2022-12-18T10:24:22;8.03;;;5.43;;
36855;SDS011;22788;51.434;6.786;2022-12-18T10:26:54;8.97;;;5.30;;
36855;SDS011;22788;51.434;6.786;2022-12-18T10:29:25;8.93;;;5.63;;
36855;SDS011;22788;51.434;6.786;2022-12-18T10:31:52;9.10;;;5.43;;
36855;SDS011;22788;51.434;6.786;2022-12-18T10:34:18;9.27;;;5.57;;
36855;SDS011;22788;51.434;6.786;2022-12-18T10:36:44;7.73;;;5.53;;
36855;SDS011;22788;51.434;6.786;2022-12-18T10:39:17;8.27;;;4.73;;
36855;SDS011;22788;51.434;6.786;2022-12-18T10:41:44;9.43;;;5.60;;
36855;SDS011;22788;51.434;6.786;2022-12-18T10:44:11;9.27;;;5.70;;
36855;SDS011;22788;51.434;6.786;2022-12-18T10:46:42;8.97;;;5.03;;
36855;SDS011;22788;51.434;6.786;2022-12-18T10:49:18;11.23;;;5.53;;
36855;SDS011;22788;51.434;6.786;2022-12-18T10:51:47;8.30;;;5.07;;
36855;SDS011;22788;51.434;6.786;2022-12-18T10:54:14;8.53;;;4.77;;
36855;SDS011;22788;51.434;6.786;2022-12-18T10:56:42;8.87;;;5.80;;
36855;SDS011;22788;51.434;6.786;2022-12-18T10:59:09;7.63;;;4.87;;
36855;SDS011;22788;51.434;6.786;2022-12-18T11:01:51;8.13;;;5.43;;
36855;SDS011;22788;51.434;6.786;2022-12-18T11:04:19;8.23;;;5.07;;
36855;SDS011;22788;51.434;6.786;2022-12-18T11:06:54;7.73;;;5.20;;
36855;SDS011;22788;51.434;6.786;2022-12-18T11:09:22;6.83;;;4.70;;
36855;SDS011;22788;51.434;6.786;2022-12-18T11:11:50;7.73;;;4.30;;
36855;SDS011;22788;51.434;6.786;2022-12-18T11:14:18;8.90;;;4.50;;
36855;SDS011;22788;51.434;6.786;2022-12-18T11:16:47;8.67;;;5.07;;
36855;SDS011;22788;51.434;6.786;2022-12-18T11:19:20;9.37;;;5.10;;
36855;SDS011;22788;51.434;6.786;2022-12-18T11:21:52;7.13;;;4.73;;
36855;SDS011;22788;51.434;6.786;2022-12-18T11:24:19;8.03;;;5.00;;
36855;SDS011;22788;51.434;6.786;2022-12-18T11:26:50;7.23;;;4.70;;
36855;SDS011;22788;51.434;6.786;2022-12-18T11:29:17;8.27;;;4.83;;
36855;SDS011;22788;51.434;6.786;2022-12-18T11:31:48;8.40;;;4.70;;
36855;SDS011;22788;51.434;6.786;2022-12-18T11:34:16;8.77;;;4.63;;
36855;SDS011;22788;51.434;6.786;2022-12-18T11:36:48;7.33;;;4.50;;
36855;SDS011;22788;51.434;6.786;2022-12-18T11:39:15;6.63;;;4.63;;
36855;SDS011;22788;51.434;6.786;2022-12-18T11:41:47;8.90;;;4.47;;
36855;SDS011;22788;51.434;6.786;2022-12-18T11:44:18;8.33;;;4.27;;
36855;SDS011;22788;51.434;6.786;2022-12-18T11:46:51;7.50;;;5.13;;
36855;SDS011;22788;51.434;6.786;2022-12-18T11:49:25;9.77;;;5.03;;
36855;SDS011;22788;51.434;6.786;2022-12-18T11:51:58;8.10;;;4.47;;
36855;SDS011;22788;51.434;6.786;2022-12-18T11:54:29;6.20;;;4.37;;
36855;SDS011;22788;51.434;6.786;2022-12-18T11:56:56;9.03;;;4.83;;
36855;SDS011;22788;51.434;6.786;2022-12-18T11:59:35;7.00;;;4.47;;
36855;SDS011;22788;51.434;6.786;2022-12-18T12:02:14;6.20;;;4.23;;
36855;SDS011;22788;51.434;6.786;2022-12-18T12:05:04;10.53;;;5.63;;
36855;SDS011;22788;51.434;6.786;2022-12-18T12:07:52;7.83;;;4.70;;
36855;SDS011;22788;51.434;6.786;2022-12-18T12:10:27;7.50;;;5.17;;
36855;SDS011;22788;51.434;6.786;2022-12-18T12:13:12;8.83;;;4.60;;
36855;SDS011;22788;51.434;6.786;2022-12-18T12:15:51;7.87;;;4.80;;
36855;SDS011;22788;51.434;6.786;2022-12-18T12:18:25;7.40;;;4.90;;
36855;SDS011;22788;51.434;6.786;2022-12-18T12:21:02;7.20;;;4.43;;
36855;SDS011;22788;51.434;6.786;2022-12-18T12:23:35;5.60;;;4.37;;
36855;SDS011;22788;51.434;6.786;2022-12-18T12:26:09;9.90;;;5.17;;
36855;SDS011;22788;51.434;6.786;2022-12-18T12:31:30;8.20;;;5.20;;
36855;SDS011;22788;51.434;6.786;2022-12-18T12:34:07;7.03;;;4.67;;
36855;SDS011;22788;51.434;6.786;2022-12-18T12:36:45;7.97;;;5.10;;
36855;SDS011;22788;51.434;6.786;2022-12-18T12:39:25;8.37;;;5.47;;
36855;SDS011;22788;51.434;6.786;2022-12-18T12:41:55;9.67;;;5.37;;
36855;SDS011;22788;51.434;6.786;2022-12-18T12:44:24;8.20;;;4.90;;
36855;SDS011;22788;51.434;6.786;2022-12-18T12:46:55;6.77;;;4.83;;
36855;SDS011;22788;51.434;6.786;2022-12-18T12:49:25;7.73;;;5.20;;
36855;SDS011;22788;51.434;6.786;2022-12-18T12:51:58;6.73;;;4.87;;
36855;SDS011;22788;51.434;6.786;2022-12-18T12:54:30;7.77;;;4.87;;
36855;SDS011;22788;51.434;6.786;2022-12-18T12:56:59;8.10;;;5.27;;
36855;SDS011;22788;51.434;6.786;2022-12-18T12:59:35;8.43;;;5.40;;
36855;SDS011;22788;51.434;6.786;2022-12-18T13:02:10;8.23;;;5.57;;
36855;SDS011;22788;51.434;6.786;2022-12-18T13:04:45;8.83;;;5.37;;
36855;SDS011;22788;51.434;6.786;2022-12-18T13:07:19;9.03;;;5.37;;
36855;SDS011;22788;51.434;6.786;2022-12-18T13:10:11;9.03;;;5.20;;
36855;SDS011;22788;51.434;6.786;2022-12-18T13:12:53;9.93;;;6.63;;
36855;SDS011;22788;51.434;6.786;2022-12-18T13:15:21;11.43;;;5.30;;
36855;SDS011;22788;51.434;6.786;2022-12-18T13:17:48;9.93;;;6.13;;
36855;SDS011;22788;51.434;6.786;2022-12-18T13:20:32;8.70;;;4.53;;
36855;SDS011;22788;51.434;6.786;2022-12-18T13:23:00;8.87;;;5.47;;
36855;SDS011;22788;51.434;6.786;2022-12-18T13:25:27;10.77;;;6.30;;
36855;SDS011;22788;51.434;6.786;2022-12-18T13:30:47;10.97;;;6.27;;
36855;SDS011;22788;51.434;6.786;2022-12-18T13:33:37;9.57;;;5.27;;
36855;SDS011;22788;51.434;6.786;2022-12-18T13:36:10;9.33;;;5.33;;
36855;SDS011;22788;51.434;6.786;2022-12-18T13:38:41;7.67;;;5.13;;
36855;SDS011;22788;51.434;6.786;2022-12-18T13:41:21;10.43;;;5.53;;
36855;SDS011;22788;51.434;6.786;2022-12-18T13:43:49;9.93;;;5.80;;
36855;SDS011;22788;51.434;6.786;2022-12-18T13:46:18;8.30;;;5.87;;
36855;SDS011;22788;51.434;6.786;2022-12-18T13:48:52;10.63;;;6.23;;
36855;SDS011;22788;51.434;6.786;2022-12-18T13:51:24;10.07;;;6.30;;
36855;SDS011;22788;51.434;6.786;2022-12-18T13:53:53;8.47;;;6.10;;
36855;SDS011;22788;51.434;6.786;2022-12-18T13:56:23;9.10;;;5.43;;
36855;SDS011;22788;51.434;6.786;2022-12-18T13:59:03;13.67;;;6.73;;
36855;SDS011;22788;51.434;6.786;2022-12-18T14:01:41;8.77;;;5.93;;
36855;SDS011;22788;51.434;6.786;2022-12-18T14:04:09;11.60;;;6.10;;
36855;SDS011;22788;51.434;6.786;2022-12-18T14:06:36;9.50;;;6.10;;
36855;SDS011;22788;51.434;6.786;2022-12-18T14:09:04;8.97;;;5.60;;
36855;SDS011;22788;51.434;6.786;2022-12-18T14:11:30;12.80;;;6.97;;
36855;SDS011;22788;51.434;6.786;2022-12-18T14:13:57;10.43;;;6.03;;
36855;SDS011;22788;51.434;6.786;2022-12-18T14:16:23;11.00;;;6.50;;
36855;SDS011;22788;51.434;6.786;2022-12-18T14:18:51;9.50;;;6.30;;
36855;SDS011;22788;51.434;6.786;2022-12-18T14:21:21;10.40;;;6.80;;
36855;SDS011;22788;51.434;6.786;2022-12-18T14:23:48;8.70;;;6.00;;
36855;SDS011;22788;51.434;6.786;2022-12-18T14:26:29;10.13;;;6.40;;
36855;SDS011;22788;51.434;6.786;2022-12-18T14:28:57;11.40;;;6.70;;
36855;SDS011;22788;51.434;6.786;2022-12-18T14:31:24;9.27;;;6.53;;
36855;SDS011;22788;51.434;6.786;2022-12-18T14:33:52;12.40;;;6.70;;
36855;SDS011;22788;51.434;6.786;2022-12-18T14:36:19;9.40;;;5.90;;
36855;SDS011;22788;51.434;6.786;2022-12-18T14:38:48;12.27;;;7.27;;
36855;SDS011;22788;51.434;6.786;2022-12-18T14:41:16;10.20;;;6.50;;
36855;SDS011;22788;51.434;6.786;2022-12-18T14:43:45;12.00;;;6.57;;
36855;SDS011;22788;51.434;6.786;2022-12-18T14:46:28;10.33;;;5.77;;
36855;SDS011;22788;51.434;6.786;2022-12-18T14:48:59;11.10;;;6.93;;
36855;SDS011;22788;51.434;6.786;2022-12-18T14:51:28;12.43;;;7.23;;
36855;SDS011;22788;51.434;6.786;2022-12-18T14:53:56;13.33;;;7.00;;
36855;SDS011;22788;51.434;6.786;2022-12-18T14:56:24;14.37;;;6.33;;
36855;SDS011;22788;51.434;6.786;2022-12-18T14:58:54;13.93;;;7.20;;
36855;SDS011;22788;51.434;6.786;2022-12-18T15:01:23;11.40;;;7.63;;
36855;SDS011;22788;51.434;6.786;2022-12-18T15:03:55;14.67;;;7.10;;